Time;durP1;ratioP1;P1;durP2;ratioP2;P2;SDS_P1;SDS_P2;PMS_P1;PMS_P2;Temp;Humidity;BMP_temperature;BMP_pressure;BME280_temperature;BME280_humidity;BME280_pressure;Samples;Min_cycle;Max_cycle;Signal;HPM_P1;HPM_P2
2022/11/27 00:02:08;;;;;;;19.02;6.03;;;6.60;99.90;;;;;;5114077;28;20032;-66
2022/11/27 00:04:34;;;;;;;21.73;7.25;;;6.50;99.90;;;;;;5113540;28;20047;-66
2022/11/27 00:07:00;;;;;;;22.10;6.15;;;6.40;99.90;;;;;;5113739;28;20033;-66
2022/11/27 00:09:25;;;;;;;23.30;6.78;;;6.40;99.90;;;;;;5113903;28;20063;-66
2022/11/27 00:11:51;;;;;;;28.13;7.10;;;6.40;99.90;;;;;;5113863;28;20039;-66
2022/11/27 00:14:17;;;;;;;26.48;6.97;;;6.40;99.90;;;;;;5095626;28;20374;-65
2022/11/27 00:16:43;;;;;;;22.20;6.60;;;6.50;99.90;;;;;;5113845;28;20117;-66
2022/11/27 00:19:10;;;;;;;24.77;6.63;;;6.60;99.90;;;;;;5113873;28;20067;-66
2022/11/27 00:21:36;;;;;;;17.80;6.55;;;6.60;99.90;;;;;;5113591;28;20038;-66
2022/11/27 00:24:04;;;;;;;20.13;6.50;;;6.50;99.90;;;;;;5113860;28;20054;-65
2022/11/27 00:26:31;;;;;;;28.45;7.38;;;6.50;99.90;;;;;;5113533;28;20465;-65
2022/11/27 00:28:56;;;;;;;20.45;6.80;;;6.50;99.90;;;;;;5113156;28;20052;-66
2022/11/27 00:31:28;;;;;;;27.13;7.30;;;6.60;99.90;;;;;;5113487;28;20039;-66
2022/11/27 00:33:56;;;;;;;17.70;6.35;;;6.60;99.90;;;;;;5113544;28;20075;-65
2022/11/27 00:36:22;;;;;;;21.08;7.22;;;6.60;99.90;;;;;;5113684;28;20391;-66
2022/11/27 00:38:48;;;;;;;18.02;6.50;;;6.50;99.90;;;;;;5115639;28;20118;-66
2022/11/27 00:41:22;;;;;;;22.60;6.35;;;6.40;99.90;;;;;;5117747;28;20118;-66
2022/11/27 00:43:48;;;;;;;21.13;7.05;;;6.50;99.90;;;;;;5117408;28;20043;-66
2022/11/27 00:46:20;;;;;;;17.08;6.60;;;6.50;99.90;;;;;;5117666;28;20044;-66
2022/11/27 00:48:46;;;;;;;23.08;7.03;;;6.40;99.90;;;;;;5117423;28;20035;-67
2022/11/27 00:51:17;;;;;;;16.73;6.13;;;6.50;99.90;;;;;;5117480;28;20137;-66
2022/11/27 00:53:43;;;;;;;16.00;5.88;;;6.40;99.90;;;;;;5117566;28;20089;-65
2022/11/27 00:56:13;;;;;;;24.85;8.45;;;6.30;99.90;;;;;;5117393;28;20040;-66
2022/11/27 00:58:39;;;;;;;17.10;8.65;;;6.40;99.90;;;;;;5117442;28;20043;-66
2022/11/27 01:01:06;;;;;;;17.48;6.97;;;6.30;99.90;;;;;;5117471;28;20057;-66
2022/11/27 01:03:33;;;;;;;19.35;6.65;;;6.30;99.90;;;;;;5117143;28;20035;-66
2022/11/27 01:06:06;;;;;;;16.02;6.18;;;6.20;99.90;;;;;;5117328;28;20116;-66
2022/11/27 01:08:32;;;;;;;19.88;6.20;;;6.30;99.90;;;;;;5117281;28;20035;-66
2022/11/27 01:10:58;;;;;;;24.23;6.68;;;6.20;99.90;;;;;;5117237;28;20065;-66
2022/11/27 01:13:26;;;;;;;15.25;6.03;;;6.20;99.90;;;;;;5117132;28;20068;-66
2022/11/27 01:16:05;;;;;;;21.10;6.68;;;6.20;99.90;;;;;;5117359;28;20043;-66
2022/11/27 01:18:32;;;;;;;17.63;6.10;;;6.20;99.90;;;;;;5117069;28;20051;-66
2022/11/27 01:20:58;;;;;;;18.25;6.78;;;6.20;99.90;;;;;;5116806;28;20469;-66
2022/11/27 01:23:24;;;;;;;16.95;6.18;;;6.20;99.90;;;;;;5116597;28;20050;-66
2022/11/27 01:25:52;;;;;;;15.45;7.15;;;6.20;99.90;;;;;;5116639;28;20101;-66
2022/11/27 01:28:18;;;;;;;15.55;5.90;;;6.20;99.90;;;;;;5116650;28;20488;-65
2022/11/27 01:30:43;;;;;;;20.98;6.28;;;6.10;99.90;;;;;;5098105;28;20058;-66
2022/11/27 01:33:09;;;;;;;17.58;6.70;;;6.10;99.90;;;;;;5116851;28;20040;-66
2022/11/27 01:35:35;;;;;;;19.88;6.65;;;6.00;99.90;;;;;;5116841;28;20458;-65
2022/11/27 01:38:00;;;;;;;17.52;6.97;;;6.10;99.90;;;;;;5116602;28;20465;-65
2022/11/27 01:40:26;;;;;;;20.50;6.20;;;6.00;99.90;;;;;;5116709;28;20450;-66
2022/11/27 01:42:51;;;;;;;18.02;6.40;;;6.00;99.90;;;;;;5116545;28;20508;-66
2022/11/27 01:45:19;;;;;;;16.98;7.07;;;6.10;99.90;;;;;;5116479;28;20478;-66
2022/11/27 01:47:57;;;;;;;16.13;6.63;;;6.10;99.90;;;;;;5116514;28;20047;-66
2022/11/27 01:50:28;;;;;;;15.50;6.20;;;5.90;99.90;;;;;;5116034;28;20036;-66
2022/11/27 01:52:58;;;;;;;20.65;7.35;;;5.90;99.90;;;;;;5116367;28;20111;-66
2022/11/27 01:55:36;;;;;;;18.55;7.00;;;5.90;99.90;;;;;;5116449;28;20036;-67
2022/11/27 01:58:10;;;;;;;21.02;7.07;;;5.90;99.90;;;;;;5116457;28;20048;-66
2022/11/27 02:00:37;;;;;;;23.25;7.45;;;5.90;99.90;;;;;;5116344;28;20044;-66
2022/11/27 02:03:03;;;;;;;17.33;6.82;;;5.90;99.90;;;;;;5116221;28;20039;-66
2022/11/27 02:05:30;;;;;;;19.42;6.35;;;5.80;99.90;;;;;;5116252;28;20036;-65
2022/11/27 02:07:58;;;;;;;24.27;7.28;;;5.80;99.90;;;;;;5116187;28;20035;-66
2022/11/27 02:10:46;;;;;;;17.48;6.97;;;5.90;99.90;;;;;;5116238;28;20090;-66
2022/11/27 02:13:17;;;;;;;20.52;6.82;;;5.90;99.90;;;;;;5116128;28;20040;-67
2022/11/27 02:15:52;;;;;;;18.17;7.43;;;5.80;99.90;;;;;;5116023;28;20036;-66
2022/11/27 02:18:32;;;;;;;21.13;7.13;;;5.90;99.90;;;;;;5115695;28;20478;-66
2022/11/27 02:21:46;;;;;;;16.70;6.50;;;5.80;99.90;;;;;;5115597;28;20596;-66
2022/11/27 02:24:36;;;;;;;19.98;7.22;;;5.80;99.90;;;;;;5013437;28;20546;-66
2022/11/27 02:27:11;;;;;;;21.47;6.27;;;5.90;99.90;;;;;;5013291;28;20444;-66
2022/11/27 02:29:39;;;;;;;17.42;6.63;;;5.90;99.90;;;;;;5013095;28;20053;-65
2022/11/27 02:32:08;;;;;;;20.23;7.30;;;5.90;99.90;;;;;;5013126;28;20046;-65
2022/11/27 02:34:39;;;;;;;23.35;7.10;;;6.00;99.90;;;;;;5013223;28;20061;-66
2022/11/27 02:37:29;;;;;;;19.50;7.07;;;5.90;99.90;;;;;;5013341;28;20046;-65
2022/11/27 02:40:10;;;;;;;20.13;7.22;;;5.90;99.90;;;;;;5012952;28;20112;-65
2022/11/27 02:43:03;;;;;;;21.88;7.20;;;5.90;99.90;;;;;;5012910;28;20141;-65
2022/11/27 02:45:37;;;;;;;17.45;6.53;;;5.90;99.90;;;;;;4954580;29;20055;-66
2022/11/27 02:48:05;;;;;;;20.73;6.63;;;6.00;99.90;;;;;;4954728;29;20089;-66
2022/11/27 02:50:33;;;;;;;18.15;7.13;;;6.00;99.90;;;;;;4954505;29;20112;-66
2022/11/27 02:53:03;;;;;;;21.20;6.47;;;6.10;99.90;;;;;;4954507;29;20114;-65
2022/11/27 02:55:33;;;;;;;21.40;5.95;;;6.10;99.90;;;;;;4954379;29;20090;-66
2022/11/27 02:58:00;;;;;;;17.27;6.03;;;6.10;99.90;;;;;;4954309;29;20070;-66
2022/11/27 03:00:28;;;;;;;15.57;6.03;;;6.10;99.90;;;;;;5029851;28;20487;-65
2022/11/27 03:02:58;;;;;;;16.15;6.30;;;6.10;99.90;;;;;;5051994;28;20063;-66
2022/11/27 03:05:28;;;;;;;16.88;6.47;;;6.10;99.90;;;;;;5052123;28;20044;-65
2022/11/27 03:08:01;;;;;;;19.48;6.10;;;6.20;99.90;;;;;;5052181;28;20037;-65
2022/11/27 03:10:41;;;;;;;16.10;6.53;;;6.20;99.90;;;;;;5052077;28;20083;-65
2022/11/27 03:13:07;;;;;;;14.88;5.97;;;6.20;99.90;;;;;;5052053;28;20045;-66
2022/11/27 03:16:01;;;;;;;14.48;6.53;;;6.20;99.90;;;;;;5052047;28;20153;-65
2022/11/27 03:18:56;;;;;;;13.65;5.90;;;6.30;99.90;;;;;;5051967;28;20391;-65
2022/11/27 03:22:03;;;;;;;17.25;5.38;;;6.30;99.90;;;;;;5052322;28;20518;-65
2022/11/27 03:24:32;;;;;;;13.68;5.80;;;6.30;99.90;;;;;;5012107;28;20058;-65
2022/11/27 03:26:59;;;;;;;16.38;6.78;;;6.30;99.90;;;;;;5012198;28;20104;-65
2022/11/27 03:29:37;;;;;;;20.73;6.35;;;6.30;99.90;;;;;;5012032;28;20050;-65
2022/11/27 03:32:04;;;;;;;17.58;6.10;;;6.30;99.90;;;;;;5012133;28;20053;-65
2022/11/27 03:34:30;;;;;;;13.10;6.57;;;6.30;99.90;;;;;;5012162;28;20050;-65
2022/11/27 03:36:55;;;;;;;15.23;5.78;;;6.30;99.90;;;;;;5011970;28;20042;-65
2022/11/27 03:39:22;;;;;;;13.50;5.47;;;6.30;99.90;;;;;;5011313;28;20054;-65
2022/11/27 03:42:32;;;;;;;15.27;5.88;;;6.30;99.90;;;;;;5012143;28;20168;-65
2022/11/27 03:45:32;;;;;;;16.30;5.53;;;6.40;99.90;;;;;;4954240;29;20055;-65
2022/11/27 03:48:18;;;;;;;14.60;6.00;;;6.30;99.90;;;;;;4953680;29;20132;-66
2022/11/27 03:51:02;;;;;;;18.27;5.85;;;6.40;99.90;;;;;;4953587;29;20081;-65
2022/11/27 03:53:48;;;;;;;16.13;5.95;;;6.40;99.90;;;;;;4953540;29;20055;-66
2022/11/27 03:56:35;;;;;;;16.20;6.22;;;6.40;99.90;;;;;;4953558;29;20105;-65
2022/11/27 03:59:09;;;;;;;14.80;5.85;;;6.30;99.90;;;;;;4959042;28;20482;-65
2022/11/27 04:01:35;;;;;;;14.35;5.32;;;6.40;99.90;;;;;;5051307;28;20145;-66
2022/11/27 04:04:01;;;;;;;17.33;4.97;;;6.30;99.90;;;;;;5051095;28;20144;-65
2022/11/27 04:06:26;;;;;;;13.95;5.95;;;6.40;99.90;;;;;;5051442;28;20128;-65
2022/11/27 04:08:52;;;;;;;12.55;5.20;;;6.40;99.90;;;;;;5051223;28;20056;-65
2022/11/27 04:11:18;;;;;;;15.95;5.38;;;6.30;99.90;;;;;;5051244;28;20044;-65
2022/11/27 04:13:43;;;;;;;11.48;5.95;;;6.40;99.90;;;;;;5054860;28;20178;-65
2022/11/27 04:16:09;;;;;;;13.55;5.53;;;6.40;99.90;;;;;;5055259;28;20048;-65
2022/11/27 04:18:35;;;;;;;13.80;5.38;;;6.40;99.90;;;;;;5055270;28;20537;-65
2022/11/27 04:21:00;;;;;;;13.18;5.07;;;6.40;99.90;;;;;;5074997;28;20530;-66
2022/11/27 04:23:26;;;;;;;13.85;5.10;;;6.40;99.90;;;;;;5118130;28;20047;-65
2022/11/27 04:25:52;;;;;;;11.85;4.97;;;6.40;99.90;;;;;;5118363;28;20071;-66
2022/11/27 04:28:17;;;;;;;12.40;5.35;;;6.40;99.90;;;;;;5118991;28;20128;-66
2022/11/27 04:30:44;;;;;;;16.40;5.13;;;6.40;99.90;;;;;;5117603;28;20118;-66
2022/11/27 04:33:10;;;;;;;14.40;4.65;;;6.40;99.90;;;;;;5118043;28;20047;-65
2022/11/27 04:35:35;;;;;;;13.20;5.07;;;6.30;99.90;;;;;;5117954;28;20405;-66
2022/11/27 04:38:01;;;;;;;15.30;5.70;;;6.40;99.90;;;;;;5117854;28;20036;-66
2022/11/27 04:40:27;;;;;;;15.52;5.22;;;6.30;99.90;;;;;;5117853;28;20110;-65
2022/11/27 04:42:52;;;;;;;11.73;4.88;;;6.30;99.90;;;;;;5117643;28;20565;-65
2022/11/27 04:45:18;;;;;;;15.88;4.88;;;6.40;99.90;;;;;;5117634;28;20044;-66
2022/11/27 04:47:44;;;;;;;14.85;4.70;;;6.30;99.90;;;;;;5117483;28;20050;-66
2022/11/27 04:50:10;;;;;;;12.40;5.10;;;6.40;99.90;;;;;;5117702;28;20036;-66
2022/11/27 04:52:36;;;;;;;16.13;5.70;;;6.30;99.90;;;;;;5117928;28;20035;-65
2022/11/27 04:55:02;;;;;;;15.43;4.90;;;6.30;99.90;;;;;;5117634;28;20362;-65
2022/11/27 04:57:27;;;;;;;12.15;4.50;;;6.30;99.90;;;;;;5117539;28;20035;-66
2022/11/27 04:59:53;;;;;;;14.88;4.90;;;6.30;99.90;;;;;;5117232;28;20549;-65
2022/11/27 05:02:18;;;;;;;9.48;4.78;;;6.30;99.90;;;;;;5117436;28;20072;-66
2022/11/27 05:04:44;;;;;;;12.00;4.50;;;6.30;99.90;;;;;;5117119;28;20067;-65
2022/11/27 05:07:10;;;;;;;13.00;4.97;;;6.30;99.90;;;;;;5117125;28;20067;-65
2022/11/27 05:09:35;;;;;;;9.32;4.25;;;6.30;99.90;;;;;;5117345;28;20035;-66
2022/11/27 05:12:01;;;;;;;12.63;4.80;;;6.30;99.90;;;;;;5117209;28;20031;-65
2022/11/27 05:14:28;;;;;;;11.45;4.97;;;6.30;99.90;;;;;;5117242;28;20437;-65
2022/11/27 05:16:56;;;;;;;13.15;4.90;;;6.30;99.90;;;;;;5116822;28;20047;-65
2022/11/27 05:19:23;;;;;;;11.68;4.82;;;6.30;99.90;;;;;;5098669;28;20047;-65
2022/11/27 05:21:50;;;;;;;10.98;4.80;;;6.20;99.90;;;;;;5117347;28;20042;-65
2022/11/27 05:24:17;;;;;;;8.70;4.35;;;6.20;99.90;;;;;;5115831;28;20542;-65
2022/11/27 05:26:42;;;;;;;12.68;4.40;;;6.30;99.90;;;;;;5116983;28;20035;-66
2022/11/27 05:29:09;;;;;;;17.52;4.10;;;6.20;99.90;;;;;;5116852;28;20040;-65
2022/11/27 05:31:35;;;;;;;11.57;4.10;;;6.20;99.90;;;;;;5116991;28;20044;-65
2022/11/27 05:34:01;;;;;;;9.60;4.50;;;6.20;99.90;;;;;;5116782;28;20398;-65
2022/11/27 05:36:27;;;;;;;11.82;4.00;;;6.20;99.90;;;;;;5116829;28;20108;-65
2022/11/27 05:38:53;;;;;;;12.63;3.90;;;6.20;99.90;;;;;;5116471;28;20485;-65
2022/11/27 05:41:19;;;;;;;10.05;4.85;;;6.20;99.90;;;;;;5116678;28;20035;-65
2022/11/27 05:43:45;;;;;;;12.82;3.80;;;6.20;99.90;;;;;;5116667;28;20135;-64
2022/11/27 05:46:20;;;;;;;14.25;4.20;;;6.20;99.90;;;;;;5098503;28;20468;-65
2022/11/27 05:48:45;;;;;;;10.02;4.03;;;6.20;99.90;;;;;;5116574;28;20074;-65
2022/11/27 05:51:11;;;;;;;10.18;4.18;;;6.20;99.90;;;;;;5116559;28;20063;-65
2022/11/27 05:53:37;;;;;;;14.57;3.88;;;6.20;99.90;;;;;;5116565;28;20043;-65
2022/11/27 05:56:09;;;;;;;13.35;4.03;;;6.20;99.90;;;;;;5116551;28;20039;-65
2022/11/27 05:58:35;;;;;;;13.00;3.92;;;6.20;99.90;;;;;;5098340;28;20042;-65
2022/11/27 06:01:01;;;;;;;15.75;4.30;;;6.10;99.90;;;;;;5116477;28;20039;-65
2022/11/27 06:03:27;;;;;;;10.18;4.22;;;6.10;99.90;;;;;;5116539;28;20055;-65
2022/11/27 06:05:53;;;;;;;10.43;4.13;;;6.10;99.90;;;;;;5116362;28;20389;-65
2022/11/27 06:08:19;;;;;;;10.63;4.20;;;6.10;99.90;;;;;;5116259;28;20033;-65
2022/11/27 06:10:46;;;;;;;14.00;4.82;;;6.20;99.90;;;;;;5115866;28;20472;-65
2022/11/27 06:13:12;;;;;;;17.25;5.65;;;6.20;99.90;;;;;;5116145;28;20118;-65
2022/11/27 06:15:38;;;;;;;9.27;4.03;;;6.10;99.90;;;;;;5116145;28;20461;-65
2022/11/27 06:18:04;;;;;;;12.60;4.00;;;6.10;99.90;;;;;;5115745;28;20108;-65
2022/11/27 06:20:29;;;;;;;8.30;3.83;;;6.10;99.90;;;;;;5115995;28;20031;-65
2022/11/27 06:22:56;;;;;;;11.73;4.15;;;6.10;99.90;;;;;;5115944;28;20032;-65
2022/11/27 06:25:22;;;;;;;11.57;3.80;;;6.10;99.90;;;;;;5115624;28;20122;-65
2022/11/27 06:27:48;;;;;;;9.15;3.53;;;6.10;99.90;;;;;;5116043;28;20043;-65
2022/11/27 06:30:14;;;;;;;11.82;3.95;;;6.10;99.90;;;;;;5115489;28;20047;-65
2022/11/27 06:32:40;;;;;;;11.15;3.95;;;6.10;99.90;;;;;;5097406;28;20047;-65
2022/11/27 06:35:06;;;;;;;14.73;4.13;;;6.10;99.90;;;;;;5114904;28;20520;-65
2022/11/27 06:37:32;;;;;;;8.77;3.83;;;6.10;99.90;;;;;;5115047;28;20043;-65
2022/11/27 06:39:58;;;;;;;13.00;3.92;;;6.10;99.90;;;;;;5115558;28;20032;-64
2022/11/27 06:42:24;;;;;;;10.18;4.13;;;6.10;99.90;;;;;;5114933;28;20466;-65
2022/11/27 06:44:49;;;;;;;11.50;3.70;;;6.10;99.90;;;;;;5115476;28;20042;-65
2022/11/27 06:47:15;;;;;;;11.00;4.22;;;6.10;99.90;;;;;;5115186;28;20035;-65
2022/11/27 06:49:41;;;;;;;10.10;4.00;;;6.10;99.90;;;;;;5115478;28;20038;-65
2022/11/27 06:52:06;;;;;;;13.70;4.15;;;6.10;99.90;;;;;;5097169;28;20534;-65
2022/11/27 06:54:32;;;;;;;13.10;4.38;;;6.10;99.90;;;;;;5115402;28;20036;-65
2022/11/27 06:56:57;;;;;;;7.90;4.45;;;6.10;99.90;;;;;;5097726;28;20047;-65
2022/11/27 06:59:23;;;;;;;10.98;4.10;;;6.20;99.90;;;;;;5115045;28;20036;-65
2022/11/27 07:01:49;;;;;;;7.85;3.70;;;6.10;99.90;;;;;;5114719;28;20039;-65
2022/11/27 07:04:15;;;;;;;13.25;3.88;;;6.10;99.90;;;;;;5115060;28;20047;-65
2022/11/27 07:06:42;;;;;;;9.40;4.30;;;6.10;99.90;;;;;;5114826;28;20035;-65
2022/11/27 07:09:08;;;;;;;11.35;3.67;;;6.10;99.90;;;;;;5114996;28;20042;-65
2022/11/27 07:11:34;;;;;;;9.50;4.28;;;6.10;99.90;;;;;;5114977;28;20102;-65
2022/11/27 07:14:02;;;;;;;9.75;3.78;;;6.10;99.90;;;;;;5114990;28;20067;-65
2022/11/27 07:16:31;;;;;;;12.57;4.07;;;6.00;99.90;;;;;;5114736;28;20076;-65
2022/11/27 07:19:03;;;;;;;11.40;3.83;;;6.00;99.90;;;;;;5114913;28;20401;-65
2022/11/27 07:21:29;;;;;;;10.13;4.20;;;6.00;99.90;;;;;;5114852;28;20479;-65
2022/11/27 07:23:57;;;;;;;11.35;4.75;;;6.10;99.90;;;;;;5114517;28;20109;-65
2022/11/27 07:26:26;;;;;;;17.38;4.70;;;6.10;99.90;;;;;;5114791;28;20046;-65
2022/11/27 07:28:52;;;;;;;10.95;4.28;;;6.10;99.90;;;;;;5096969;28;20055;-65
2022/11/27 07:31:20;;;;;;;13.38;4.65;;;6.10;99.90;;;;;;5114757;28;20075;-66
2022/11/27 07:33:46;;;;;;;16.40;4.85;;;6.10;99.90;;;;;;5114405;28;20521;-65
2022/11/27 07:36:18;;;;;;;10.77;3.75;;;6.00;99.90;;;;;;5114608;28;20092;-65
2022/11/27 07:38:45;;;;;;;11.93;3.63;;;6.10;99.90;;;;;;5114647;28;20044;-65
2022/11/27 07:41:11;;;;;;;11.50;3.92;;;6.10;99.90;;;;;;5114786;28;20092;-65
2022/11/27 07:43:37;;;;;;;11.40;4.75;;;6.00;99.90;;;;;;5114213;28;20497;-65
2022/11/27 07:46:09;;;;;;;11.73;4.32;;;6.00;99.90;;;;;;5114555;28;20031;-65
2022/11/27 07:48:35;;;;;;;10.48;4.80;;;6.10;99.90;;;;;;5114089;28;20039;-66
2022/11/27 07:51:00;;;;;;;12.18;4.63;;;6.10;99.90;;;;;;5114461;28;20378;-65
2022/11/27 07:53:26;;;;;;;10.32;4.03;;;6.10;99.90;;;;;;5114521;28;20435;-66
2022/11/27 07:55:51;;;;;;;9.45;4.20;;;6.10;99.90;;;;;;5114312;28;20031;-65
2022/11/27 07:58:17;;;;;;;7.25;4.90;;;6.10;99.90;;;;;;5114370;28;20039;-65
2022/11/27 08:00:43;;;;;;;9.63;4.38;;;6.10;99.90;;;;;;5114390;28;20389;-65
2022/11/27 08:03:09;;;;;;;12.55;5.25;;;6.10;99.90;;;;;;5114348;28;20047;-65
2022/11/27 08:05:36;;;;;;;10.05;4.03;;;6.10;99.90;;;;;;5113901;28;20036;-65
2022/11/27 08:08:03;;;;;;;14.13;4.70;;;6.20;99.90;;;;;;5114267;28;20032;-66
2022/11/27 08:10:29;;;;;;;12.40;4.97;;;6.20;99.90;;;;;;5095688;28;20039;-66
2022/11/27 08:12:56;;;;;;;9.65;4.70;;;6.20;99.90;;;;;;5114170;28;20039;-66
2022/11/27 08:15:22;;;;;;;11.68;4.93;;;6.30;99.90;;;;;;5095879;28;20481;-65
2022/11/27 08:17:48;;;;;;;13.13;4.70;;;6.30;99.90;;;;;;5114132;28;20040;-65
2022/11/27 08:20:14;;;;;;;9.10;5.05;;;6.30;99.90;;;;;;5114169;28;20481;-66
2022/11/27 08:22:40;;;;;;;9.80;4.78;;;6.30;99.90;;;;;;5113810;28;20039;-65
2022/11/27 08:25:06;;;;;;;11.15;5.15;;;6.30;99.90;;;;;;5114030;28;20089;-66
2022/11/27 08:27:32;;;;;;;9.93;5.20;;;6.30;99.90;;;;;;5114152;28;20031;-65
2022/11/27 08:29:59;;;;;;;9.32;4.88;;;6.80;99.90;;;;;;5113555;28;20509;-66
2022/11/27 08:32:25;;;;;;;10.07;4.78;;;6.30;99.90;;;;;;5113750;28;20036;-66
2022/11/27 08:34:50;;;;;;;9.18;5.07;;;6.20;99.90;;;;;;5113984;28;20044;-66
2022/11/27 08:37:16;;;;;;;9.57;4.57;;;6.30;99.90;;;;;;5114057;28;20373;-66
2022/11/27 08:39:42;;;;;;;13.07;4.60;;;6.30;99.90;;;;;;5113832;28;20084;-65
2022/11/27 08:42:07;;;;;;;9.32;4.82;;;6.30;99.90;;;;;;5113974;28;20136;-66
2022/11/27 08:44:33;;;;;;;10.30;4.93;;;6.30;99.90;;;;;;5113228;28;20039;-65
2022/11/27 08:46:59;;;;;;;11.88;5.10;;;6.30;99.90;;;;;;5113426;28;20041;-66
2022/11/27 08:49:24;;;;;;;13.45;5.05;;;6.30;99.90;;;;;;5113829;28;20165;-66
2022/11/27 08:51:50;;;;;;;9.43;5.25;;;6.30;99.90;;;;;;5113822;28;20371;-65
2022/11/27 08:54:15;;;;;;;13.85;4.85;;;6.30;99.90;;;;;;5113908;28;20122;-66
2022/11/27 08:56:41;;;;;;;11.88;5.47;;;6.30;99.90;;;;;;5113797;28;20046;-66
2022/11/27 08:59:07;;;;;;;12.95;4.88;;;6.30;99.90;;;;;;5114587;28;20043;-66
2022/11/27 09:01:33;;;;;;;12.18;5.65;;;6.30;99.90;;;;;;5117663;28;20530;-66
2022/11/27 09:03:59;;;;;;;10.75;5.35;;;6.30;99.90;;;;;;5117066;28;20032;-66
2022/11/27 09:06:27;;;;;;;10.75;6.13;;;6.30;99.90;;;;;;5115088;28;20507;-66
2022/11/27 09:08:55;;;;;;;10.48;5.30;;;6.30;99.90;;;;;;5115975;28;20469;-66
2022/11/27 09:11:21;;;;;;;14.85;6.72;;;6.30;99.90;;;;;;5117425;28;20067;-66
2022/11/27 09:13:47;;;;;;;11.23;5.35;;;6.30;99.90;;;;;;5117313;28;20071;-66
2022/11/27 09:16:15;;;;;;;10.80;6.07;;;6.30;99.90;;;;;;5117007;28;20031;-66
2022/11/27 09:18:43;;;;;;;14.13;5.70;;;6.40;99.90;;;;;;5117038;28;20036;-66
2022/11/27 09:21:10;;;;;;;14.40;5.97;;;6.40;99.90;;;;;;5117213;28;20043;-65
2022/11/27 09:23:37;;;;;;;14.07;6.13;;;6.40;99.90;;;;;;5117123;28;20265;-66
2022/11/27 09:26:05;;;;;;;9.82;6.03;;;6.30;99.90;;;;;;5117126;28;20118;-65
2022/11/27 09:28:32;;;;;;;14.63;5.90;;;6.30;99.90;;;;;;5117112;28;20118;-66
2022/11/27 09:31:01;;;;;;;11.98;6.05;;;6.30;99.90;;;;;;5116670;28;20104;-66
2022/11/27 09:33:28;;;;;;;10.93;5.50;;;6.40;99.90;;;;;;5117015;28;20096;-65
2022/11/27 09:35:54;;;;;;;11.68;5.93;;;6.30;99.90;;;;;;5115487;28;20107;-66
2022/11/27 09:38:19;;;;;;;11.85;6.28;;;6.30;99.90;;;;;;5097014;28;20113;-65
2022/11/27 09:40:48;;;;;;;11.90;5.60;;;6.40;99.90;;;;;;5116786;28;20157;-66
2022/11/27 09:43:15;;;;;;;;;;;6.30;99.90;;;;;;5117223;28;20028;-66
2022/11/27 09:45:48;;;;;;;11.88;6.05;;;6.40;99.90;;;;;;5116758;28;20333;-65
2022/11/27 09:48:19;;;;;;;12.48;6.00;;;6.30;99.90;;;;;;5116706;28;20028;-66
2022/11/27 09:50:49;;;;;;;15.05;6.32;;;6.40;99.90;;;;;;5116314;28;20092;-66
2022/11/27 09:53:40;;;;;;;13.27;6.70;;;6.30;99.90;;;;;;5116595;28;20111;-66
2022/11/27 09:56:11;;;;;;;17.42;6.32;;;6.30;99.90;;;;;;5116589;28;20054;-66
2022/11/27 09:58:38;;;;;;;14.88;6.68;;;6.40;99.90;;;;;;5116462;28;20035;-66
2022/11/27 10:01:28;;;;;;;13.65;7.28;;;6.30;99.90;;;;;;5116161;28;20516;-66
2022/11/27 10:03:54;;;;;;;11.65;6.35;;;6.40;99.90;;;;;;5013557;28;20054;-66
2022/11/27 10:06:52;;;;;;;11.20;6.35;;;6.30;99.90;;;;;;5013608;28;20481;-66
2022/11/27 10:09:43;;;;;;;16.30;6.70;;;6.30;99.90;;;;;;5013758;28;20481;-66
2022/11/27 10:12:39;;;;;;;12.70;6.45;;;6.30;99.90;;;;;;5013558;28;20038;-66
2022/11/27 10:15:18;;;;;;;18.98;6.60;;;6.30;99.90;;;;;;4955135;29;20062;-65
2022/11/27 10:17:51;;;;;;;15.77;7.38;;;6.30;99.90;;;;;;4955118;29;20134;-66
2022/11/27 10:20:27;;;;;;;16.20;6.50;;;6.30;99.90;;;;;;4955096;29;20091;-66
2022/11/27 10:23:02;;;;;;;14.35;6.97;;;6.30;99.90;;;;;;4954911;29;20055;-66
2022/11/27 10:25:53;;;;;;;18.27;6.75;;;6.30;99.90;;;;;;4954870;29;20059;-65
2022/11/27 10:28:39;;;;;;;14.43;7.38;;;6.30;99.90;;;;;;4955276;29;20043;-65
2022/11/27 10:31:13;;;;;;;12.40;6.85;;;6.30;99.90;;;;;;4953104;29;20090;-65
2022/11/27 10:33:46;;;;;;;15.52;7.10;;;6.30;99.90;;;;;;4952699;29;20058;-64
2022/11/27 10:36:27;;;;;;;13.85;6.82;;;6.30;99.90;;;;;;4950326;29;20049;-63
2022/11/27 10:38:55;;;;;;;14.63;7.07;;;6.30;99.90;;;;;;4950844;29;20106;-64
2022/11/27 10:41:28;;;;;;;15.75;7.38;;;6.30;99.90;;;;;;5020697;28;20083;-63
2022/11/27 10:43:56;;;;;;;15.30;7.47;;;6.30;99.90;;;;;;5050717;28;20548;-64
2022/11/27 10:46:30;;;;;;;15.35;7.32;;;6.30;99.90;;;;;;5050716;28;20462;-64
2022/11/27 10:48:57;;;;;;;15.60;7.50;;;6.30;99.90;;;;;;5050768;28;20486;-64
2022/11/27 10:51:33;;;;;;;17.77;7.22;;;6.30;99.90;;;;;;5063802;28;20048;-64
2022/11/27 10:54:01;;;;;;;11.00;6.28;;;6.30;99.90;;;;;;5113307;28;20047;-65
2022/11/27 10:56:53;;;;;;;19.30;7.70;;;6.30;99.90;;;;;;5113613;28;20040;-64
2022/11/27 10:59:28;;;;;;;11.93;7.13;;;6.30;99.90;;;;;;5113266;28;20453;-64
2022/11/27 11:01:56;;;;;;;16.10;7.18;;;6.30;99.90;;;;;;5113051;28;20043;-64
2022/11/27 11:04:27;;;;;;;17.17;7.78;;;6.30;99.90;;;;;;5111354;28;20059;-64
2022/11/27 11:06:53;;;;;;;15.98;7.57;;;6.30;99.90;;;;;;5110828;28;20074;-64
2022/11/27 11:09:28;;;;;;;18.52;7.75;;;6.40;99.90;;;;;;5093612;28;20039;-63
2022/11/27 11:12:07;;;;;;;16.92;7.90;;;6.30;99.90;;;;;;5113076;28;20035;-63
2022/11/27 11:14:33;;;;;;;17.30;7.75;;;6.40;99.90;;;;;;5112852;28;20043;-64
2022/11/27 11:16:59;;;;;;;14.05;7.30;;;6.40;99.90;;;;;;5113058;28;20101;-64
2022/11/27 11:19:30;;;;;;;16.48;7.40;;;6.40;99.90;;;;;;5113010;28;20070;-64
2022/11/27 11:21:57;;;;;;;12.43;7.10;;;6.40;99.90;;;;;;5112130;28;20043;-63
2022/11/27 11:24:30;;;;;;;18.20;7.60;;;6.40;99.90;;;;;;5112560;28;20127;-63
2022/11/27 11:27:05;;;;;;;11.93;7.40;;;6.40;99.90;;;;;;5112716;28;20043;-63
2022/11/27 11:29:39;;;;;;;14.30;7.75;;;6.40;99.90;;;;;;5094025;28;20055;-64
2022/11/27 11:32:27;;;;;;;16.02;6.90;;;6.40;99.90;;;;;;5112792;28;20044;-64
2022/11/27 11:35:03;;;;;;;16.60;7.07;;;6.40;99.90;;;;;;5112303;28;20081;-64
2022/11/27 11:37:38;;;;;;;11.93;7.00;;;6.50;99.90;;;;;;5112567;28;20047;-64
2022/11/27 11:40:31;;;;;;;15.52;7.28;;;6.40;99.90;;;;;;5112610;28;20039;-64
2022/11/27 11:43:03;;;;;;;13.82;6.90;;;6.50;99.90;;;;;;5010041;28;20058;-64
2022/11/27 11:45:33;;;;;;;11.48;6.97;;;6.40;99.90;;;;;;5009932;28;20046;-65
2022/11/27 11:48:19;;;;;;;14.60;8.20;;;6.50;99.90;;;;;;5009869;28;20057;-64
2022/11/27 11:51:13;;;;;;;15.98;6.50;;;6.50;99.90;;;;;;5010088;28;20038;-63
2022/11/27 11:53:43;;;;;;;11.85;6.43;;;6.50;99.90;;;;;;5009886;28;20492;-64
2022/11/27 11:56:33;;;;;;;12.77;7.07;;;6.50;99.90;;;;;;5009916;28;20078;-64
2022/11/27 11:59:02;;;;;;;15.15;6.78;;;6.50;99.90;;;;;;5010254;28;20053;-64
2022/11/27 12:01:52;;;;;;;11.95;7.18;;;6.50;99.90;;;;;;5009780;28;20061;-63
2022/11/27 12:04:45;;;;;;;14.50;7.15;;;6.40;99.90;;;;;;5009840;28;20508;-63
2022/11/27 12:07:31;;;;;;;14.50;7.47;;;6.50;99.90;;;;;;5009739;28;20053;-64
2022/11/27 12:10:09;;;;;;;17.45;7.13;;;6.50;99.90;;;;;;5009837;28;20045;-63
2022/11/27 12:12:35;;;;;;;12.30;6.53;;;6.50;99.90;;;;;;5009874;28;20548;-63
2022/11/27 12:15:36;;;;;;;12.95;6.68;;;6.50;99.90;;;;;;5009842;28;20041;-63
2022/11/27 12:18:29;;;;;;;12.93;6.70;;;6.50;99.90;;;;;;4935863;29;20054;-63
2022/11/27 12:21:24;;;;;;;14.20;6.13;;;6.50;99.90;;;;;;5024418;28;20063;-65
2022/11/27 12:23:49;;;;;;;15.65;7.55;;;6.50;99.90;;;;;;5029635;28;20042;-63
2022/11/27 12:26:46;;;;;;;13.02;7.03;;;6.50;99.90;;;;;;5029362;28;20053;-63
2022/11/27 12:29:42;;;;;;;13.88;6.43;;;6.50;99.90;;;;;;5029122;28;20603;-64
2022/11/27 12:32:22;;;;;;;17.95;7.15;;;6.50;99.90;;;;;;5029193;28;20045;-64
2022/11/27 12:35:25;;;;;;;13.48;7.05;;;6.60;99.90;;;;;;5032704;28;20499;-64
2022/11/27 12:38:27;;;;;;;13.65;6.63;;;6.60;99.90;;;;;;5033380;28;20037;-63
2022/11/27 12:41:31;;;;;;;15.88;6.78;;;6.60;99.90;;;;;;5033161;28;20045;-64
2022/11/27 12:43:59;;;;;;;12.82;6.80;;;6.60;99.90;;;;;;4954895;29;20514;-63
2022/11/27 12:47:06;;;;;;;15.15;7.45;;;6.70;99.90;;;;;;4954840;29;20058;-63
2022/11/27 12:49:41;;;;;;;11.63;6.88;;;6.60;99.90;;;;;;4916638;29;20048;-63
2022/11/27 12:52:53;;;;;;;8.95;6.35;;;6.60;99.90;;;;;;4916577;29;20062;-63
2022/11/27 12:55:25;;;;;;;19.40;7.18;;;6.60;99.90;;;;;;4867482;29;20055;-64
2022/11/27 12:57:58;;;;;;;12.45;6.97;;;6.60;99.90;;;;;;4878856;29;20064;-64
2022/11/27 13:00:29;;;;;;;14.07;7.20;;;6.60;99.90;;;;;;4878987;29;20408;-63
2022/11/27 13:03:01;;;;;;;13.32;6.93;;;6.60;99.90;;;;;;4878745;29;20127;-64
2022/11/27 13:05:31;;;;;;;12.93;6.47;;;6.60;99.90;;;;;;4878693;29;20108;-64
2022/11/27 13:08:07;;;;;;;12.35;7.20;;;6.60;99.90;;;;;;4879026;29;20124;-63
2022/11/27 13:10:35;;;;;;;15.00;7.00;;;6.60;99.90;;;;;;4878726;29;20135;-63